createdAt,value
2019-02-18T00:01:51.665Z,2.90
2019-02-18T00:04:21.026Z,2.90
2019-02-18T00:06:50.484Z,2.90
2019-02-18T00:09:19.858Z,2.90
2019-02-18T00:11:49.189Z,2.90
2019-02-18T00:14:18.559Z,2.80
2019-02-18T00:16:48.051Z,2.80
2019-02-18T00:19:17.413Z,2.80
2019-02-18T00:21:46.923Z,2.80
2019-02-18T00:24:16.125Z,2.80
2019-02-18T00:26:45.415Z,2.80
2019-02-18T00:29:14.790Z,2.70
2019-02-18T00:31:44.179Z,2.80
2019-02-18T00:34:13.472Z,2.80
2019-02-18T00:36:42.775Z,2.80
2019-02-18T00:39:12.081Z,2.80
2019-02-18T00:41:41.412Z,2.80
2019-02-18T00:44:10.813Z,2.80
2019-02-18T00:46:40.103Z,2.80
2019-02-18T00:49:11.507Z,2.70
2019-02-18T00:51:40.811Z,2.70
2019-02-18T00:54:10.143Z,2.60
2019-02-18T00:56:39.532Z,2.60
2019-02-18T00:59:09.008Z,2.50
2019-02-18T01:01:38.441Z,2.50
2019-02-18T01:04:07.785Z,2.50
2019-02-18T01:06:37.147Z,2.40
2019-02-18T01:09:07.353Z,2.40
2019-02-18T01:11:36.710Z,2.40
2019-02-18T01:14:06.009Z,2.40
2019-02-18T01:16:35.330Z,2.30
2019-02-18T01:22:07.311Z,2.30
2019-02-18T01:24:36.612Z,2.30
2019-02-18T01:27:05.956Z,2.30
2019-02-18T01:29:35.313Z,2.30
2019-02-18T01:32:04.695Z,2.30
2019-02-18T01:34:34.121Z,2.30
2019-02-18T01:37:03.593Z,2.30
2019-02-18T01:39:32.875Z,2.30
2019-02-18T01:42:02.215Z,2.30
2019-02-18T01:44:31.607Z,2.30
2019-02-18T01:47:01.057Z,2.20
2019-02-18T01:49:30.418Z,2.20
2019-02-18T01:51:59.820Z,2.20
2019-02-18T01:54:29.195Z,2.20
2019-02-18T01:56:58.495Z,2.20
2019-02-18T01:59:27.942Z,2.20
2019-02-18T02:01:57.282Z,2.20
2019-02-18T02:04:26.615Z,2.20
2019-02-18T02:06:55.910Z,2.10
2019-02-18T02:09:25.299Z,2.10
2019-02-18T02:11:54.700Z,2.10
2019-02-18T02:14:23.996Z,2.10
2019-02-18T02:16:53.418Z,2.10
2019-02-18T02:19:22.721Z,2.00
2019-02-18T02:21:52.179Z,2.00
2019-02-18T02:24:21.592Z,2.00
2019-02-18T02:26:50.949Z,2.00
2019-02-18T02:29:20.354Z,1.90
2019-02-18T02:31:49.719Z,1.90
2019-02-18T02:34:19.124Z,1.90
2019-02-18T02:36:48.630Z,1.90
2019-02-18T02:39:17.865Z,1.80
2019-02-18T02:41:47.225Z,1.80
2019-02-18T02:44:16.584Z,1.80
2019-02-18T02:46:46.975Z,1.80
2019-02-18T02:49:16.401Z,1.80
2019-02-18T02:51:45.786Z,1.80
2019-02-18T02:54:15.183Z,1.70
2019-02-18T02:56:44.589Z,1.80
2019-02-18T02:59:14.081Z,1.70
2019-02-18T03:01:43.434Z,1.70
2019-02-18T03:04:12.860Z,1.70
2019-02-18T03:06:42.166Z,1.70
2019-02-18T03:09:11.484Z,1.60
2019-02-18T03:11:40.763Z,1.60
2019-02-18T03:14:11.147Z,1.60
2019-02-18T03:16:40.504Z,1.60
2019-02-18T03:19:09.842Z,1.60
2019-02-18T03:21:39.319Z,1.50
2019-02-18T03:24:34.944Z,1.50
2019-02-18T03:27:23.471Z,1.50
2019-02-18T03:30:29.693Z,1.50
2019-02-18T03:32:59.048Z,1.50
2019-02-18T03:35:28.425Z,1.40
2019-02-18T03:37:58.275Z,1.40
2019-02-18T03:43:50.309Z,1.40
2019-02-18T03:49:42.334Z,1.40
2019-02-18T03:52:11.831Z,1.30
2019-02-18T03:54:41.064Z,1.30
2019-02-18T03:57:10.517Z,1.30
2019-02-18T03:59:39.872Z,1.30
2019-02-18T04:02:09.332Z,1.30
2019-02-18T04:04:38.709Z,1.30
2019-02-18T04:07:08.040Z,1.30
2019-02-18T04:09:37.450Z,1.20
2019-02-18T04:12:06.796Z,1.20
2019-02-18T04:14:36.159Z,1.20
2019-02-18T04:17:05.465Z,1.20
2019-02-18T04:19:34.884Z,1.20
2019-02-18T04:22:04.324Z,1.10
2019-02-18T04:24:33.672Z,1.10
2019-02-18T04:27:03.071Z,1.10
2019-02-18T04:29:32.423Z,1.10
2019-02-18T04:32:01.796Z,1.10
2019-02-18T04:34:31.225Z,1.10
2019-02-18T04:37:00.672Z,1.10
2019-02-18T04:39:30.129Z,1.00
2019-02-18T04:41:59.416Z,1.00
2019-02-18T04:44:28.808Z,1.00
2019-02-18T04:46:58.087Z,1.00
2019-02-18T04:49:27.515Z,1.00
2019-02-18T04:51:56.941Z,1.00
2019-02-18T04:54:26.273Z,1.00
2019-02-18T04:56:55.647Z,1.00
2019-02-18T04:59:25.006Z,0.90
2019-02-18T05:01:54.408Z,0.90
2019-02-18T05:04:23.834Z,0.90
2019-02-18T05:06:53.217Z,0.90
2019-02-18T05:09:22.556Z,0.90
2019-02-18T05:11:51.870Z,0.90
2019-02-18T05:14:21.256Z,0.90
2019-02-18T05:16:50.656Z,0.90
2019-02-18T05:19:20.062Z,0.80
2019-02-18T05:21:49.379Z,0.80
2019-02-18T05:24:18.625Z,0.80
2019-02-18T05:26:47.999Z,0.80
2019-02-18T05:29:17.390Z,0.80
2019-02-18T05:31:46.760Z,0.80
2019-02-18T05:34:16.063Z,0.80
2019-02-18T05:36:45.458Z,0.80
2019-02-18T05:39:17.952Z,0.80
2019-02-18T05:41:45.879Z,0.80
2019-02-18T05:44:15.308Z,0.70
2019-02-18T05:46:44.715Z,0.80
2019-02-18T05:49:14.110Z,0.80
2019-02-18T05:51:43.443Z,0.80
2019-02-18T05:54:12.739Z,0.80
2019-02-18T05:56:42.164Z,0.80
2019-02-18T05:59:11.434Z,0.80
2019-02-18T06:01:40.796Z,0.80
2019-02-18T06:04:10.137Z,0.80
2019-02-18T06:06:39.576Z,0.70
2019-02-18T06:09:08.923Z,0.70
2019-02-18T06:11:38.263Z,0.70
2019-02-18T06:14:07.666Z,0.80
2019-02-18T06:16:37.183Z,0.80
2019-02-18T06:19:06.554Z,0.80
2019-02-18T06:21:35.919Z,0.80
2019-02-18T06:24:05.443Z,0.80
2019-02-18T06:26:34.945Z,0.80
2019-02-18T06:29:04.384Z,0.90
2019-02-18T06:31:33.688Z,0.80
2019-02-18T06:34:03.113Z,0.90
2019-02-18T06:36:32.580Z,0.90
2019-02-18T06:39:02.040Z,0.90
2019-02-18T06:41:31.444Z,1.00
2019-02-18T06:44:01.024Z,1.00
2019-02-18T06:46:39.498Z,1.10
2019-02-18T06:49:17.456Z,1.10
2019-02-18T06:51:47.819Z,1.10
2019-02-18T06:54:17.430Z,1.20
2019-02-18T06:57:11.551Z,1.20
2019-02-18T06:59:45.012Z,1.30
2019-02-18T07:02:19.367Z,1.40
2019-02-18T07:05:13.464Z,1.40
2019-02-18T07:08:04.952Z,1.60
2019-02-18T07:11:02.097Z,1.80
2019-02-18T07:13:31.484Z,2.00
2019-02-18T07:16:00.791Z,2.10
2019-02-18T07:18:30.128Z,2.20
2019-02-18T07:20:59.527Z,2.30
2019-02-18T07:23:28.903Z,2.60
2019-02-18T07:25:58.265Z,2.90
2019-02-18T07:28:27.676Z,3.20
2019-02-18T07:30:57.277Z,3.40
2019-02-18T07:33:26.609Z,3.50
2019-02-18T07:35:55.936Z,3.80
2019-02-18T07:38:25.617Z,4.10
2019-02-18T07:40:55.043Z,4.40
2019-02-18T07:43:24.516Z,4.90
2019-02-18T07:45:53.726Z,5.40
2019-02-18T07:48:22.994Z,5.90
2019-02-18T07:51:11.334Z,6.30
2019-02-18T07:53:40.686Z,6.70
2019-02-18T07:56:09.939Z,7.10
2019-02-18T07:58:41.558Z,7.50
2019-02-18T08:01:10.911Z,8.00
2019-02-18T08:03:40.220Z,8.40
2019-02-18T08:06:09.482Z,8.80
2019-02-18T08:08:41.831Z,9.30
2019-02-18T08:11:11.143Z,9.70
2019-02-18T08:13:40.567Z,10.10
2019-02-18T08:16:09.814Z,10.40
2019-02-18T08:18:39.206Z,10.70
2019-02-18T08:21:08.540Z,11.00
2019-02-18T08:23:37.916Z,11.30
2019-02-18T08:26:07.239Z,11.60
2019-02-18T08:28:36.587Z,11.90
2019-02-18T08:31:05.993Z,12.20
2019-02-18T08:33:35.327Z,12.50
2019-02-18T08:36:04.659Z,12.90
2019-02-18T08:38:34.077Z,13.20
2019-02-18T08:41:03.408Z,13.10
2019-02-18T08:43:33.275Z,13.00
2019-02-18T08:46:02.683Z,13.20
2019-02-18T08:48:32.270Z,13.50
2019-02-18T08:51:01.624Z,13.90
2019-02-18T08:53:30.992Z,14.30
2019-02-18T08:56:00.484Z,14.60
2019-02-18T08:58:29.887Z,15.00
2019-02-18T09:01:18.531Z,15.40
2019-02-18T09:03:48.254Z,15.40
2019-02-18T09:06:17.578Z,15.40
2019-02-18T09:08:46.857Z,15.30
2019-02-18T09:11:16.280Z,15.40
2019-02-18T09:13:45.720Z,15.40
2019-02-18T09:16:15.050Z,15.40
2019-02-18T09:18:44.333Z,15.60
2019-02-18T09:21:13.675Z,15.90
2019-02-18T09:23:47.968Z,16.40
2019-02-18T09:26:17.661Z,16.80
2019-02-18T09:28:47.158Z,17.00
2019-02-18T09:31:18.144Z,17.30
2019-02-18T09:33:47.378Z,17.60
2019-02-18T09:36:16.582Z,17.80
2019-02-18T09:38:46.024Z,18.10
2019-02-18T09:41:15.391Z,18.30
2019-02-18T09:43:44.598Z,18.50
2019-02-18T09:46:14.064Z,18.70
2019-02-18T09:48:43.392Z,18.90
2019-02-18T09:51:13.046Z,19.10
2019-02-18T09:53:42.351Z,19.40
2019-02-18T09:56:11.748Z,19.60
2019-02-18T09:58:41.068Z,19.70
2019-02-18T10:01:10.497Z,19.80
2019-02-18T10:03:39.953Z,20.00
2019-02-18T10:06:09.317Z,20.20
2019-02-18T10:08:38.794Z,20.40
2019-02-18T10:11:08.247Z,20.50
2019-02-18T10:13:37.708Z,20.60
2019-02-18T10:16:07.056Z,20.80
2019-02-18T10:18:36.430Z,20.90
2019-02-18T10:21:05.831Z,21.10
2019-02-18T10:23:35.221Z,21.10
2019-02-18T10:26:04.608Z,21.20
2019-02-18T10:28:33.938Z,21.40
2019-02-18T10:31:03.310Z,21.40
2019-02-18T10:33:32.618Z,21.50
2019-02-18T10:36:01.986Z,21.50
2019-02-18T10:38:31.453Z,21.30
2019-02-18T10:41:06.883Z,20.90
2019-02-18T10:43:32.782Z,20.40
2019-02-18T10:46:02.269Z,20.20
2019-02-18T10:48:31.672Z,19.90
2019-02-18T10:51:01.081Z,19.60
2019-02-18T10:53:30.481Z,19.40
2019-02-18T10:55:59.893Z,19.20
2019-02-18T10:58:29.325Z,18.90
2019-02-18T11:00:58.747Z,18.70
2019-02-18T11:03:28.245Z,18.40
2019-02-18T11:05:57.651Z,18.20
2019-02-18T11:08:27.023Z,17.90
2019-02-18T11:10:56.530Z,17.80
2019-02-18T11:13:25.888Z,17.60
2019-02-18T11:15:55.259Z,17.40
2019-02-18T11:18:24.619Z,17.30
2019-02-18T11:20:53.929Z,17.20
2019-02-18T11:23:23.361Z,17.00
2019-02-18T11:25:52.829Z,16.90
2019-02-18T11:28:22.250Z,16.70
2019-02-18T11:30:51.632Z,16.60
2019-02-18T11:33:40.024Z,16.40
2019-02-18T11:36:09.449Z,16.30
2019-02-18T11:38:39.274Z,16.20
2019-02-18T11:41:08.607Z,16.10
2019-02-18T11:43:37.992Z,16.00
2019-02-18T11:46:07.456Z,15.90
2019-02-18T11:48:37.063Z,15.80
2019-02-18T11:51:06.355Z,15.70
2019-02-18T11:53:35.990Z,15.60
2019-02-18T11:56:05.406Z,15.50
2019-02-18T12:01:41.804Z,15.40
2019-02-18T12:04:11.187Z,15.30
2019-02-18T12:06:59.697Z,15.10
2019-02-18T12:09:50.986Z,15.10
2019-02-18T12:15:10.144Z,14.90
2019-02-18T12:17:39.559Z,14.80
2019-02-18T12:20:11.114Z,14.80
2019-02-18T12:22:40.514Z,14.70
2019-02-18T12:25:10.066Z,14.50
2019-02-18T12:27:39.833Z,14.50
2019-02-18T12:30:10.286Z,14.50
2019-02-18T12:32:39.867Z,14.40
2019-02-18T12:35:09.492Z,14.40
2019-02-18T12:37:39.013Z,14.40
2019-02-18T12:40:08.837Z,14.30
2019-02-18T12:42:38.595Z,14.30
2019-02-18T12:45:08.739Z,14.20
2019-02-18T12:47:38.157Z,14.20
2019-02-18T12:50:07.720Z,14.10
2019-02-18T12:52:37.218Z,14.00
2019-02-18T12:55:06.676Z,14.00
2019-02-18T12:57:36.396Z,14.00
2019-02-18T13:00:06.524Z,14.00
2019-02-18T13:02:43.693Z,14.00
2019-02-18T13:05:08.123Z,14.00
2019-02-18T13:07:37.654Z,14.00
2019-02-18T13:10:07.293Z,14.00
2019-02-18T13:12:36.881Z,14.00
2019-02-18T13:15:07.743Z,13.90
2019-02-18T13:17:37.296Z,13.90
2019-02-18T13:20:07.022Z,13.90
2019-02-18T13:22:36.481Z,13.80
2019-02-18T13:25:06.227Z,13.80
2019-02-18T13:27:35.579Z,13.80
2019-02-18T13:30:08.668Z,13.80
2019-02-18T13:32:38.097Z,13.80
2019-02-18T13:35:07.699Z,13.80
2019-02-18T13:37:37.168Z,13.70
2019-02-18T13:40:06.700Z,13.80
2019-02-18T13:42:36.586Z,13.80
2019-02-18T13:45:06.448Z,13.70
2019-02-18T13:47:35.953Z,13.70
2019-02-18T13:50:06.055Z,13.70
2019-02-18T13:52:35.613Z,13.60
2019-02-18T13:55:07.793Z,13.60
2019-02-18T14:04:09.072Z,13.50
2019-02-18T14:06:38.450Z,13.50
2019-02-18T14:09:08.373Z,13.50
2019-02-18T14:11:37.697Z,13.50
2019-02-18T14:14:07.262Z,13.50
2019-02-18T14:16:36.796Z,13.40
2019-02-18T14:19:06.471Z,13.40
2019-02-18T14:21:36.029Z,13.40
2019-02-18T14:24:05.775Z,13.40
2019-02-18T14:26:35.388Z,13.40
2019-02-18T14:29:04.800Z,13.40
2019-02-18T14:31:34.255Z,13.40
2019-02-18T14:34:03.635Z,13.40
2019-02-18T14:36:42.164Z,13.40
2019-02-18T14:39:19.883Z,13.30
2019-02-18T14:41:49.347Z,13.30
2019-02-18T14:44:18.810Z,13.40
2019-02-18T14:46:48.425Z,13.40
2019-02-18T14:49:18.210Z,13.50
2019-02-18T14:51:47.690Z,13.50
2019-02-18T14:54:17.187Z,13.60
2019-02-18T14:56:46.605Z,13.60
2019-02-18T14:59:16.233Z,13.60
2019-02-18T15:01:45.700Z,13.60
2019-02-18T15:04:15.342Z,13.60
2019-02-18T15:06:44.735Z,13.60
2019-02-18T15:09:14.405Z,13.60
2019-02-18T15:11:43.845Z,13.50
2019-02-18T15:14:13.210Z,13.50
2019-02-18T15:16:42.605Z,13.40
2019-02-18T15:19:12.282Z,13.40
2019-02-18T15:21:41.727Z,13.40
2019-02-18T15:24:11.096Z,13.30
2019-02-18T15:26:40.509Z,13.30
2019-02-18T15:29:09.873Z,13.20
2019-02-18T15:31:39.495Z,13.20
2019-02-18T15:34:09.117Z,13.10
2019-02-18T15:36:38.510Z,13.10
2019-02-18T15:39:07.894Z,13.10
2019-02-18T15:41:37.283Z,13.00
2019-02-18T15:44:06.866Z,12.90
2019-02-18T15:46:36.245Z,12.90
2019-02-18T15:49:05.878Z,12.80
2019-02-18T15:51:35.348Z,12.80
2019-02-18T15:54:04.716Z,12.70
2019-02-18T15:56:34.106Z,12.70
2019-02-18T15:59:03.577Z,12.60
2019-02-18T16:01:32.931Z,12.60
2019-02-18T16:04:02.320Z,12.50
2019-02-18T16:06:31.903Z,12.40
2019-02-18T16:09:01.284Z,12.30
2019-02-18T16:11:30.648Z,12.30
2019-02-18T16:14:00.112Z,12.30
2019-02-18T16:16:29.694Z,12.20
2019-02-18T16:18:59.138Z,12.10
2019-02-18T16:21:28.563Z,12.00
2019-02-18T16:23:58.150Z,11.90
2019-02-18T16:26:27.571Z,11.90
2019-02-18T16:28:57.010Z,11.80
2019-02-18T16:31:26.462Z,11.70
2019-02-18T16:33:56.074Z,11.70
2019-02-18T16:36:25.628Z,11.60
2019-02-18T16:39:14.359Z,11.50
2019-02-18T16:42:02.863Z,11.50
2019-02-18T16:44:32.298Z,11.40
2019-02-18T16:47:01.680Z,11.30
2019-02-18T16:49:31.258Z,11.20
2019-02-18T16:52:00.640Z,11.10
2019-02-18T16:54:30.267Z,11.10
2019-02-18T16:56:59.672Z,11.00
2019-02-18T16:59:29.220Z,10.90
2019-02-18T17:01:58.742Z,10.90
2019-02-18T17:04:28.115Z,10.80
2019-02-18T17:06:57.546Z,10.70
2019-02-18T17:09:27.139Z,10.70
2019-02-18T17:11:56.830Z,10.60
2019-02-18T17:14:26.449Z,10.60
2019-02-18T17:16:55.898Z,10.50
2019-02-18T17:19:25.374Z,10.40
2019-02-18T17:21:54.787Z,10.40
2019-02-18T17:24:24.162Z,10.30
2019-02-18T17:26:53.551Z,10.30
2019-02-18T17:29:22.960Z,10.20
2019-02-18T17:31:52.319Z,10.20
2019-02-18T17:34:21.738Z,10.10
2019-02-18T17:36:51.127Z,10.10
2019-02-18T17:39:20.610Z,10.00
2019-02-18T17:41:49.981Z,9.90
2019-02-18T17:44:20.489Z,9.80
2019-02-18T17:46:49.900Z,9.80
2019-02-18T17:49:19.255Z,9.70
2019-02-18T17:51:48.635Z,9.60
2019-02-18T17:54:18.165Z,9.60
2019-02-18T17:56:47.519Z,9.50
2019-02-18T17:59:16.970Z,9.40
2019-02-18T18:01:46.351Z,9.30
2019-02-18T18:04:15.665Z,9.30
2019-02-18T18:06:45.051Z,9.20
2019-02-18T18:09:14.456Z,9.20
2019-02-18T18:11:43.865Z,9.10
2019-02-18T18:14:13.397Z,9.10
2019-02-18T18:16:42.807Z,9.00
2019-02-18T18:19:12.269Z,9.00
2019-02-18T18:21:41.667Z,8.90
2019-02-18T18:24:11.116Z,8.80
2019-02-18T18:26:40.503Z,8.80
2019-02-18T18:29:09.920Z,8.70
2019-02-18T18:31:39.287Z,8.70
2019-02-18T18:34:08.675Z,8.60
2019-02-18T18:36:38.132Z,8.50
2019-02-18T18:39:07.429Z,8.50
2019-02-18T18:41:36.803Z,8.40
2019-02-18T18:44:06.235Z,8.40
2019-02-18T18:46:35.675Z,8.30
2019-02-18T18:49:05.069Z,8.30
2019-02-18T18:51:34.784Z,8.20
2019-02-18T18:54:04.307Z,8.20
2019-02-18T18:56:33.733Z,8.20
2019-02-18T18:59:03.200Z,8.10
2019-02-18T19:01:33.010Z,8.00
2019-02-18T19:04:02.350Z,8.00
2019-02-18T19:06:31.975Z,7.90
2019-02-18T19:09:01.376Z,7.90
2019-02-18T19:11:30.763Z,7.80
2019-02-18T19:14:00.148Z,7.80
2019-02-18T19:16:29.636Z,7.70
2019-02-18T19:18:59.111Z,7.70
2019-02-18T19:21:28.517Z,7.60
2019-02-18T19:23:57.858Z,7.60
2019-02-18T19:26:27.316Z,7.50
2019-02-18T19:28:56.689Z,7.50
2019-02-18T19:31:28.524Z,7.40
2019-02-18T19:33:58.130Z,7.40
2019-02-18T19:36:27.533Z,7.30
2019-02-18T19:38:56.915Z,7.30
2019-02-18T19:41:26.321Z,7.20
2019-02-18T19:43:55.807Z,7.10
2019-02-18T19:46:25.207Z,7.10
2019-02-18T19:48:54.591Z,7.00
2019-02-18T19:51:23.996Z,7.00
2019-02-18T19:53:53.378Z,6.90
2019-02-18T19:56:22.820Z,6.90
2019-02-18T19:58:52.246Z,6.90
2019-02-18T20:01:21.674Z,6.80
2019-02-18T20:03:51.113Z,6.80
2019-02-18T20:06:20.495Z,6.70
2019-02-18T20:08:49.792Z,6.70
2019-02-18T20:11:19.260Z,6.70
2019-02-18T20:13:48.622Z,6.60
2019-02-18T20:16:18.309Z,6.60
2019-02-18T20:18:47.748Z,6.50
2019-02-18T20:21:17.168Z,6.50
2019-02-18T20:23:46.497Z,6.50
2019-02-18T20:26:15.907Z,6.40
2019-02-18T20:28:45.427Z,6.30
2019-02-18T20:31:15.033Z,6.30
2019-02-18T20:33:44.422Z,6.20
2019-02-18T20:36:13.763Z,6.20
2019-02-18T20:38:43.141Z,6.10
2019-02-18T20:41:12.552Z,6.00
2019-02-18T20:43:41.953Z,6.00
2019-02-18T20:46:11.452Z,5.90
2019-02-18T20:48:40.985Z,5.90
2019-02-18T20:51:10.374Z,5.90
2019-02-18T20:53:39.761Z,5.80
2019-02-18T20:56:09.167Z,5.80
2019-02-18T20:58:38.705Z,5.80
2019-02-18T21:01:08.128Z,5.70
2019-02-18T21:03:37.700Z,5.70
2019-02-18T21:06:07.109Z,5.60
2019-02-18T21:08:36.487Z,5.60
2019-02-18T21:11:05.864Z,5.50
2019-02-18T21:13:35.290Z,5.50
2019-02-18T21:16:04.610Z,5.50
2019-02-18T21:18:34.032Z,5.50
2019-02-18T21:21:22.556Z,5.40
2019-02-18T21:23:52.035Z,5.40
2019-02-18T21:26:41.210Z,5.30
2019-02-18T21:29:10.649Z,5.30
2019-02-18T21:31:40.029Z,5.30
2019-02-18T21:34:09.445Z,5.20
2019-02-18T21:36:38.756Z,5.20
2019-02-18T21:39:12.640Z,5.10
2019-02-18T21:41:42.156Z,5.10
2019-02-18T21:44:11.550Z,5.10
2019-02-18T21:46:40.952Z,5.00
2019-02-18T21:49:10.691Z,5.00
2019-02-18T21:51:40.049Z,5.00
2019-02-18T21:54:09.413Z,4.90
2019-02-18T21:56:38.807Z,4.90
2019-02-18T21:59:08.251Z,4.90
2019-02-18T22:01:37.575Z,4.80
2019-02-18T22:04:06.989Z,4.80
2019-02-18T22:06:36.370Z,4.80
2019-02-18T22:09:07.459Z,4.70
2019-02-18T22:11:36.935Z,4.70
2019-02-18T22:14:06.307Z,4.70
2019-02-18T22:16:35.743Z,4.60
2019-02-18T22:19:05.603Z,4.50
2019-02-18T22:21:35.027Z,4.50
2019-02-18T22:24:04.514Z,4.50
2019-02-18T22:26:33.903Z,4.40
2019-02-18T22:29:03.391Z,4.40
2019-02-18T22:31:33.855Z,4.30
2019-02-18T22:34:03.337Z,4.20
2019-02-18T22:36:32.744Z,4.20
2019-02-18T22:39:02.212Z,4.20
2019-02-18T22:41:31.674Z,4.20
2019-02-18T22:44:01.053Z,4.10
2019-02-18T22:46:30.508Z,4.10
2019-02-18T22:48:59.903Z,4.00
2019-02-18T22:51:29.354Z,4.00
2019-02-18T22:53:58.839Z,4.00
2019-02-18T22:56:28.285Z,4.00
2019-02-18T22:58:57.756Z,3.90
2019-02-18T23:01:28.122Z,3.90
2019-02-18T23:03:57.607Z,3.90
2019-02-18T23:06:27.620Z,3.80
2019-02-18T23:08:57.044Z,3.80
2019-02-18T23:11:26.551Z,3.80
2019-02-18T23:13:55.952Z,3.80
2019-02-18T23:16:26.349Z,3.70
2019-02-18T23:18:56.764Z,3.70
2019-02-18T23:21:26.375Z,3.70
2019-02-18T23:23:55.737Z,3.60
2019-02-18T23:26:25.714Z,3.60
2019-02-18T23:28:55.143Z,3.50
2019-02-18T23:31:24.513Z,3.50
2019-02-18T23:33:53.892Z,3.50
2019-02-18T23:36:23.649Z,3.40
2019-02-18T23:38:53.044Z,3.40
2019-02-18T23:41:22.407Z,3.40
2019-02-18T23:43:51.780Z,3.40
2019-02-18T23:46:21.127Z,3.40
2019-02-18T23:48:50.585Z,3.30
2019-02-18T23:51:19.945Z,3.30
2019-02-18T23:53:49.421Z,3.30
2019-02-18T23:56:18.760Z,3.30
2019-02-18T23:58:48.107Z,3.20
